sensor_id;sensor_type;location;lat;lon;timestamp;temperature;humidity
35299;DHT22;21415;48.054;16.646;2022-12-08T00:02:21;9.90;46.70
35299;DHT22;21415;48.054;16.646;2022-12-08T00:04:47;10.00;46.70
35299;DHT22;21415;48.054;16.646;2022-12-08T00:07:31;10.00;46.80
35299;DHT22;21415;48.054;16.646;2022-12-08T00:10:16;10.10;46.80
35299;DHT22;21415;48.054;16.646;2022-12-08T00:12:41;9.90;46.70
35299;DHT22;21415;48.054;16.646;2022-12-08T00:15:07;10.00;46.80
35299;DHT22;21415;48.054;16.646;2022-12-08T00:17:33;9.90;46.80
35299;DHT22;21415;48.054;16.646;2022-12-08T00:19:59;9.90;46.80
35299;DHT22;21415;48.054;16.646;2022-12-08T00:22:24;9.90;46.90
35299;DHT22;21415;48.054;16.646;2022-12-08T00:24:50;10.00;46.90
35299;DHT22;21415;48.054;16.646;2022-12-08T00:27:16;10.00;46.90
35299;DHT22;21415;48.054;16.646;2022-12-08T00:29:43;10.10;47.00
35299;DHT22;21415;48.054;16.646;2022-12-08T00:32:10;10.00;47.00
35299;DHT22;21415;48.054;16.646;2022-12-08T00:34:36;10.00;46.90
35299;DHT22;21415;48.054;16.646;2022-12-08T00:37:01;10.00;46.90
35299;DHT22;21415;48.054;16.646;2022-12-08T00:39:27;10.00;47.00
35299;DHT22;21415;48.054;16.646;2022-12-08T00:41:53;10.00;47.10
35299;DHT22;21415;48.054;16.646;2022-12-08T00:44:37;10.00;47.10
35299;DHT22;21415;48.054;16.646;2022-12-08T00:47:03;10.00;47.10
35299;DHT22;21415;48.054;16.646;2022-12-08T00:49:29;10.00;47.10
35299;DHT22;21415;48.054;16.646;2022-12-08T00:51:56;10.00;47.00
35299;DHT22;21415;48.054;16.646;2022-12-08T00:54:22;10.00;47.00
35299;DHT22;21415;48.054;16.646;2022-12-08T00:56:48;10.00;47.10
35299;DHT22;21415;48.054;16.646;2022-12-08T00:59:14;10.00;47.20
35299;DHT22;21415;48.054;16.646;2022-12-08T01:01:42;10.00;47.30
35299;DHT22;21415;48.054;16.646;2022-12-08T01:04:11;10.00;47.30
35299;DHT22;21415;48.054;16.646;2022-12-08T01:06:37;10.00;47.30
35299;DHT22;21415;48.054;16.646;2022-12-08T01:09:05;10.00;47.30
35299;DHT22;21415;48.054;16.646;2022-12-08T01:11:32;10.00;47.40
35299;DHT22;21415;48.054;16.646;2022-12-08T01:13:58;10.00;47.30
35299;DHT22;21415;48.054;16.646;2022-12-08T01:16:29;10.00;47.30
35299;DHT22;21415;48.054;16.646;2022-12-08T01:18:59;10.10;47.40
35299;DHT22;21415;48.054;16.646;2022-12-08T01:21:25;10.10;47.50
35299;DHT22;21415;48.054;16.646;2022-12-08T01:23:52;10.10;47.40
35299;DHT22;21415;48.054;16.646;2022-12-08T01:26:18;10.10;47.40
35299;DHT22;21415;48.054;16.646;2022-12-08T01:28:45;10.10;47.50
35299;DHT22;21415;48.054;16.646;2022-12-08T01:31:12;10.30;47.40
35299;DHT22;21415;48.054;16.646;2022-12-08T01:33:38;10.10;47.50
35299;DHT22;21415;48.054;16.646;2022-12-08T01:36:04;10.10;47.40
35299;DHT22;21415;48.054;16.646;2022-12-08T01:38:30;10.20;47.60
35299;DHT22;21415;48.054;16.646;2022-12-08T01:40:56;10.10;47.40
35299;DHT22;21415;48.054;16.646;2022-12-08T01:43:22;10.10;47.40
35299;DHT22;21415;48.054;16.646;2022-12-08T01:45:48;10.10;47.50
35299;DHT22;21415;48.054;16.646;2022-12-08T01:48:19;10.20;47.60
35299;DHT22;21415;48.054;16.646;2022-12-08T01:50:48;10.10;47.70
35299;DHT22;21415;48.054;16.646;2022-12-08T01:53:32;10.20;47.70
35299;DHT22;21415;48.054;16.646;2022-12-08T01:58:36;10.20;47.80
35299;DHT22;21415;48.054;16.646;2022-12-08T02:01:03;10.20;47.80
35299;DHT22;21415;48.054;16.646;2022-12-08T02:06:35;10.20;47.80
35299;DHT22;21415;48.054;16.646;2022-12-08T02:09:03;10.30;47.90
35299;DHT22;21415;48.054;16.646;2022-12-08T02:11:29;10.20;47.70
35299;DHT22;21415;48.054;16.646;2022-12-08T02:13:56;10.40;47.80
35299;DHT22;21415;48.054;16.646;2022-12-08T02:24:49;10.30;47.70
35299;DHT22;21415;48.054;16.646;2022-12-08T02:38:43;10.30;47.70
35299;DHT22;21415;48.054;16.646;2022-12-08T02:41:18;10.30;47.80
35299;DHT22;21415;48.054;16.646;2022-12-08T02:43:47;10.30;47.70
35299;DHT22;21415;48.054;16.646;2022-12-08T02:46:22;10.30;47.80
35299;DHT22;21415;48.054;16.646;2022-12-08T02:48:50;10.30;47.80
35299;DHT22;21415;48.054;16.646;2022-12-08T02:51:17;10.30;47.70
35299;DHT22;21415;48.054;16.646;2022-12-08T02:53:43;10.30;47.70
35299;DHT22;21415;48.054;16.646;2022-12-08T03:01:55;10.20;47.80
35299;DHT22;21415;48.054;16.646;2022-12-08T03:07:08;10.30;47.90
35299;DHT22;21415;48.054;16.646;2022-12-08T03:12:17;10.30;48.00
35299;DHT22;21415;48.054;16.646;2022-12-08T03:14:47;10.30;47.90
35299;DHT22;21415;48.054;16.646;2022-12-08T03:17:16;10.30;48.00
35299;DHT22;21415;48.054;16.646;2022-12-08T03:19:45;10.30;48.10
35299;DHT22;21415;48.054;16.646;2022-12-08T03:22:14;10.30;48.10
35299;DHT22;21415;48.054;16.646;2022-12-08T03:24:43;10.30;48.10
35299;DHT22;21415;48.054;16.646;2022-12-08T03:27:21;10.30;48.20
35299;DHT22;21415;48.054;16.646;2022-12-08T03:29:49;10.30;48.40
35299;DHT22;21415;48.054;16.646;2022-12-08T03:32:20;10.30;48.30
35299;DHT22;21415;48.054;16.646;2022-12-08T03:34:48;10.30;48.30
35299;DHT22;21415;48.054;16.646;2022-12-08T03:37:15;10.20;48.40
35299;DHT22;21415;48.054;16.646;2022-12-08T03:39:41;10.40;48.60
35299;DHT22;21415;48.054;16.646;2022-12-08T03:42:07;10.20;48.50
35299;DHT22;21415;48.054;16.646;2022-12-08T03:44:33;10.30;48.60
35299;DHT22;21415;48.054;16.646;2022-12-08T03:46:58;10.30;48.70
35299;DHT22;21415;48.054;16.646;2022-12-08T03:49:24;10.30;48.70
35299;DHT22;21415;48.054;16.646;2022-12-08T03:51:50;10.30;48.80
35299;DHT22;21415;48.054;16.646;2022-12-08T03:54:16;10.40;48.80
35299;DHT22;21415;48.054;16.646;2022-12-08T03:56:41;10.40;48.90
35299;DHT22;21415;48.054;16.646;2022-12-08T03:59:08;10.30;48.90
35299;DHT22;21415;48.054;16.646;2022-12-08T04:01:34;10.40;49.00
35299;DHT22;21415;48.054;16.646;2022-12-08T04:04:00;10.40;49.00
35299;DHT22;21415;48.054;16.646;2022-12-08T04:06:26;10.40;49.10
35299;DHT22;21415;48.054;16.646;2022-12-08T04:08:52;10.40;49.10
35299;DHT22;21415;48.054;16.646;2022-12-08T04:11:18;10.40;49.10
35299;DHT22;21415;48.054;16.646;2022-12-08T04:13:44;10.40;49.10
35299;DHT22;21415;48.054;16.646;2022-12-08T04:16:19;10.40;49.20
35299;DHT22;21415;48.054;16.646;2022-12-08T04:18:45;10.40;49.40
35299;DHT22;21415;48.054;16.646;2022-12-08T04:21:11;10.50;49.20
35299;DHT22;21415;48.054;16.646;2022-12-08T04:23:37;10.50;49.30
35299;DHT22;21415;48.054;16.646;2022-12-08T04:26:04;10.50;49.30
35299;DHT22;21415;48.054;16.646;2022-12-08T04:28:29;10.50;49.30
35299;DHT22;21415;48.054;16.646;2022-12-08T04:30:55;10.50;49.50
35299;DHT22;21415;48.054;16.646;2022-12-08T04:33:21;10.70;49.20
35299;DHT22;21415;48.054;16.646;2022-12-08T04:35:47;10.50;49.20
35299;DHT22;21415;48.054;16.646;2022-12-08T04:38:13;10.50;49.30
35299;DHT22;21415;48.054;16.646;2022-12-08T04:40:39;10.50;49.40
35299;DHT22;21415;48.054;16.646;2022-12-08T04:43:05;10.50;49.40
35299;DHT22;21415;48.054;16.646;2022-12-08T04:45:31;10.60;49.40
35299;DHT22;21415;48.054;16.646;2022-12-08T04:47:58;10.70;49.50
35299;DHT22;21415;48.054;16.646;2022-12-08T04:50:24;10.60;49.50
35299;DHT22;21415;48.054;16.646;2022-12-08T04:52:50;10.60;49.40
35299;DHT22;21415;48.054;16.646;2022-12-08T04:55:16;10.60;49.50
35299;DHT22;21415;48.054;16.646;2022-12-08T04:57:42;10.60;49.50
35299;DHT22;21415;48.054;16.646;2022-12-08T05:00:08;10.60;49.50
35299;DHT22;21415;48.054;16.646;2022-12-08T05:02:35;10.60;49.60
35299;DHT22;21415;48.054;16.646;2022-12-08T05:05:01;10.60;49.60
35299;DHT22;21415;48.054;16.646;2022-12-08T05:07:26;10.60;49.70
35299;DHT22;21415;48.054;16.646;2022-12-08T05:09:52;10.60;49.70
35299;DHT22;21415;48.054;16.646;2022-12-08T05:12:18;10.60;49.70
35299;DHT22;21415;48.054;16.646;2022-12-08T05:14:46;10.60;49.70
35299;DHT22;21415;48.054;16.646;2022-12-08T05:17:13;10.60;49.80
35299;DHT22;21415;48.054;16.646;2022-12-08T05:19:39;10.60;49.80
35299;DHT22;21415;48.054;16.646;2022-12-08T05:22:04;10.60;49.90
35299;DHT22;21415;48.054;16.646;2022-12-08T05:24:30;10.50;49.90
35299;DHT22;21415;48.054;16.646;2022-12-08T05:26:56;10.70;50.00
35299;DHT22;21415;48.054;16.646;2022-12-08T05:29:22;10.50;50.00
35299;DHT22;21415;48.054;16.646;2022-12-08T05:31:48;10.50;50.00
35299;DHT22;21415;48.054;16.646;2022-12-08T05:34:13;10.50;50.10
35299;DHT22;21415;48.054;16.646;2022-12-08T05:36:39;10.50;50.20
35299;DHT22;21415;48.054;16.646;2022-12-08T05:39:05;10.50;50.20
35299;DHT22;21415;48.054;16.646;2022-12-08T05:41:31;10.50;50.30
35299;DHT22;21415;48.054;16.646;2022-12-08T05:43:57;10.50;50.40
35299;DHT22;21415;48.054;16.646;2022-12-08T05:46:23;10.50;50.40
35299;DHT22;21415;48.054;16.646;2022-12-08T05:48:49;10.50;50.40
35299;DHT22;21415;48.054;16.646;2022-12-08T05:51:20;10.50;51.00
35299;DHT22;21415;48.054;16.646;2022-12-08T05:53:47;10.50;50.70
35299;DHT22;21415;48.054;16.646;2022-12-08T05:56:13;10.50;50.60
35299;DHT22;21415;48.054;16.646;2022-12-08T05:58:40;10.40;50.50
35299;DHT22;21415;48.054;16.646;2022-12-08T06:01:06;10.50;50.60
35299;DHT22;21415;48.054;16.646;2022-12-08T06:03:32;10.50;50.60
35299;DHT22;21415;48.054;16.646;2022-12-08T06:05:58;10.40;50.60
35299;DHT22;21415;48.054;16.646;2022-12-08T06:08:24;10.40;50.70
35299;DHT22;21415;48.054;16.646;2022-12-08T06:10:49;10.50;50.80
35299;DHT22;21415;48.054;16.646;2022-12-08T06:13:15;10.50;50.80
35299;DHT22;21415;48.054;16.646;2022-12-08T06:15:41;10.60;50.90
35299;DHT22;21415;48.054;16.646;2022-12-08T06:18:08;10.50;50.90
35299;DHT22;21415;48.054;16.646;2022-12-08T06:20:35;10.40;50.90
35299;DHT22;21415;48.054;16.646;2022-12-08T06:23:00;10.40;50.90
35299;DHT22;21415;48.054;16.646;2022-12-08T06:25:28;10.40;50.90
35299;DHT22;21415;48.054;16.646;2022-12-08T06:27:53;10.40;50.90
35299;DHT22;21415;48.054;16.646;2022-12-08T06:30:19;10.40;51.00
35299;DHT22;21415;48.054;16.646;2022-12-08T06:32:45;10.40;51.00
35299;DHT22;21415;48.054;16.646;2022-12-08T06:35:10;10.40;51.10
35299;DHT22;21415;48.054;16.646;2022-12-08T06:37:36;10.40;51.10
35299;DHT22;21415;48.054;16.646;2022-12-08T06:40:03;10.50;51.20
35299;DHT22;21415;48.054;16.646;2022-12-08T06:42:28;10.40;51.20
35299;DHT22;21415;48.054;16.646;2022-12-08T06:45:12;10.40;51.20
35299;DHT22;21415;48.054;16.646;2022-12-08T06:47:38;10.40;51.20
35299;DHT22;21415;48.054;16.646;2022-12-08T06:50:05;10.40;51.70
35299;DHT22;21415;48.054;16.646;2022-12-08T06:52:31;10.40;51.30
35299;DHT22;21415;48.054;16.646;2022-12-08T06:54:57;10.40;51.20
35299;DHT22;21415;48.054;16.646;2022-12-08T06:57:22;10.50;51.30
35299;DHT22;21415;48.054;16.646;2022-12-08T06:59:49;10.50;51.30
35299;DHT22;21415;48.054;16.646;2022-12-08T07:02:15;10.50;51.30
35299;DHT22;21415;48.054;16.646;2022-12-08T07:04:42;10.70;51.30
35299;DHT22;21415;48.054;16.646;2022-12-08T07:07:07;10.50;51.30
35299;DHT22;21415;48.054;16.646;2022-12-08T07:09:33;10.50;51.30
35299;DHT22;21415;48.054;16.646;2022-12-08T07:11:59;10.40;51.20
35299;DHT22;21415;48.054;16.646;2022-12-08T07:14:25;10.50;51.30
35299;DHT22;21415;48.054;16.646;2022-12-08T07:16:51;10.50;51.30
35299;DHT22;21415;48.054;16.646;2022-12-08T07:19:17;10.50;51.30
35299;DHT22;21415;48.054;16.646;2022-12-08T07:21:43;10.50;51.30
35299;DHT22;21415;48.054;16.646;2022-12-08T07:24:08;10.50;51.40
35299;DHT22;21415;48.054;16.646;2022-12-08T07:26:34;10.50;51.40
35299;DHT22;21415;48.054;16.646;2022-12-08T07:29:00;10.50;51.40
35299;DHT22;21415;48.054;16.646;2022-12-08T07:31:26;10.50;51.50
35299;DHT22;21415;48.054;16.646;2022-12-08T07:33:53;10.40;51.40
35299;DHT22;21415;48.054;16.646;2022-12-08T07:36:19;10.50;52.00
35299;DHT22;21415;48.054;16.646;2022-12-08T07:38:45;10.50;51.30
35299;DHT22;21415;48.054;16.646;2022-12-08T07:41:16;10.50;51.40
35299;DHT22;21415;48.054;16.646;2022-12-08T07:43:43;10.40;51.60
35299;DHT22;21415;48.054;16.646;2022-12-08T07:46:13;10.40;51.50
35299;DHT22;21415;48.054;16.646;2022-12-08T07:48:40;10.40;52.00
35299;DHT22;21415;48.054;16.646;2022-12-08T07:51:07;10.40;51.40
35299;DHT22;21415;48.054;16.646;2022-12-08T07:53:33;10.40;51.40
35299;DHT22;21415;48.054;16.646;2022-12-08T07:55:59;10.40;51.60
35299;DHT22;21415;48.054;16.646;2022-12-08T07:58:25;10.40;51.60
35299;DHT22;21415;48.054;16.646;2022-12-08T08:00:52;10.40;51.80
35299;DHT22;21415;48.054;16.646;2022-12-08T08:03:18;10.40;52.40
35299;DHT22;21415;48.054;16.646;2022-12-08T08:05:44;10.30;51.90
35299;DHT22;21415;48.054;16.646;2022-12-08T08:08:12;10.50;52.00
35299;DHT22;21415;48.054;16.646;2022-12-08T08:10:38;10.50;52.10
35299;DHT22;21415;48.054;16.646;2022-12-08T08:13:04;10.40;52.10
35299;DHT22;21415;48.054;16.646;2022-12-08T08:15:29;10.50;52.60
35299;DHT22;21415;48.054;16.646;2022-12-08T08:17:55;10.40;52.10
35299;DHT22;21415;48.054;16.646;2022-12-08T08:20:21;10.50;52.10
35299;DHT22;21415;48.054;16.646;2022-12-08T08:22:50;10.50;52.10
35299;DHT22;21415;48.054;16.646;2022-12-08T08:25:18;10.60;52.30
35299;DHT22;21415;48.054;16.646;2022-12-08T08:27:44;10.60;52.20
35299;DHT22;21415;48.054;16.646;2022-12-08T08:30:12;10.60;52.20
35299;DHT22;21415;48.054;16.646;2022-12-08T08:32:38;10.60;52.20
35299;DHT22;21415;48.054;16.646;2022-12-08T08:35:04;10.60;52.20
35299;DHT22;21415;48.054;16.646;2022-12-08T08:37:30;10.60;52.20
35299;DHT22;21415;48.054;16.646;2022-12-08T08:39:56;10.70;52.20
35299;DHT22;21415;48.054;16.646;2022-12-08T08:42:22;10.70;52.10
35299;DHT22;21415;48.054;16.646;2022-12-08T08:44:47;10.70;52.10
35299;DHT22;21415;48.054;16.646;2022-12-08T08:47:14;10.80;52.10
35299;DHT22;21415;48.054;16.646;2022-12-08T08:49:40;10.80;52.10
35299;DHT22;21415;48.054;16.646;2022-12-08T08:52:06;10.80;52.10
35299;DHT22;21415;48.054;16.646;2022-12-08T08:54:32;10.80;52.00
35299;DHT22;21415;48.054;16.646;2022-12-08T08:57:00;10.90;52.00
35299;DHT22;21415;48.054;16.646;2022-12-08T08:59:26;10.90;52.10
35299;DHT22;21415;48.054;16.646;2022-12-08T09:01:53;10.90;52.00
35299;DHT22;21415;48.054;16.646;2022-12-08T09:04:20;10.90;52.00
35299;DHT22;21415;48.054;16.646;2022-12-08T09:06:46;10.90;51.90
35299;DHT22;21415;48.054;16.646;2022-12-08T09:09:12;11.00;51.90
35299;DHT22;21415;48.054;16.646;2022-12-08T09:11:38;11.00;52.10
35299;DHT22;21415;48.054;16.646;2022-12-08T09:14:04;10.90;52.00
35299;DHT22;21415;48.054;16.646;2022-12-08T09:16:30;11.00;51.50
35299;DHT22;21415;48.054;16.646;2022-12-08T09:18:56;11.20;51.70
35299;DHT22;21415;48.054;16.646;2022-12-08T09:21:23;11.10;51.60
35299;DHT22;21415;48.054;16.646;2022-12-08T09:23:54;11.10;51.60
35299;DHT22;21415;48.054;16.646;2022-12-08T09:26:21;11.10;51.60
35299;DHT22;21415;48.054;16.646;2022-12-08T09:28:47;11.10;51.60
35299;DHT22;21415;48.054;16.646;2022-12-08T09:31:15;11.10;51.60
35299;DHT22;21415;48.054;16.646;2022-12-08T09:33:42;11.10;51.60
35299;DHT22;21415;48.054;16.646;2022-12-08T09:36:09;11.20;51.70
35299;DHT22;21415;48.054;16.646;2022-12-08T09:38:35;11.20;51.70
35299;DHT22;21415;48.054;16.646;2022-12-08T09:41:03;11.20;51.70
35299;DHT22;21415;48.054;16.646;2022-12-08T09:46:42;11.20;51.90
35299;DHT22;21415;48.054;16.646;2022-12-08T09:49:18;11.30;51.70
35299;DHT22;21415;48.054;16.646;2022-12-08T09:51:45;11.30;51.90
35299;DHT22;21415;48.054;16.646;2022-12-08T09:56:42;11.30;51.70
35299;DHT22;21415;48.054;16.646;2022-12-08T10:01:35;11.30;51.60
35299;DHT22;21415;48.054;16.646;2022-12-08T10:17:47;11.30;51.70
35299;DHT22;21415;48.054;16.646;2022-12-08T10:20:19;11.30;51.90
35299;DHT22;21415;48.054;16.646;2022-12-08T10:22:48;11.30;51.90
35299;DHT22;21415;48.054;16.646;2022-12-08T10:25:19;11.30;51.80
35299;DHT22;21415;48.054;16.646;2022-12-08T10:27:51;11.30;51.80
35299;DHT22;21415;48.054;16.646;2022-12-08T10:30:18;11.40;51.90
35299;DHT22;21415;48.054;16.646;2022-12-08T10:32:47;11.40;52.30
35299;DHT22;21415;48.054;16.646;2022-12-08T10:35:15;11.40;51.80
35299;DHT22;21415;48.054;16.646;2022-12-08T10:37:57;11.40;51.80
35299;DHT22;21415;48.054;16.646;2022-12-08T10:40:26;11.50;52.00
35299;DHT22;21415;48.054;16.646;2022-12-08T10:42:55;11.50;51.80
35299;DHT22;21415;48.054;16.646;2022-12-08T10:45:28;11.50;51.80
35299;DHT22;21415;48.054;16.646;2022-12-08T10:48:33;11.60;51.90
35299;DHT22;21415;48.054;16.646;2022-12-08T10:50:59;11.60;51.90
35299;DHT22;21415;48.054;16.646;2022-12-08T10:53:28;11.60;51.70
35299;DHT22;21415;48.054;16.646;2022-12-08T10:58:33;11.70;51.70
35299;DHT22;21415;48.054;16.646;2022-12-08T11:01:23;11.70;51.70
35299;DHT22;21415;48.054;16.646;2022-12-08T11:03:50;11.70;51.60
35299;DHT22;21415;48.054;16.646;2022-12-08T11:06:21;11.80;51.50
35299;DHT22;21415;48.054;16.646;2022-12-08T11:08:55;11.80;51.50
35299;DHT22;21415;48.054;16.646;2022-12-08T11:16:55;11.80;51.20
35299;DHT22;21415;48.054;16.646;2022-12-08T11:19:26;11.80;51.20
35299;DHT22;21415;48.054;16.646;2022-12-08T11:21:53;11.70;51.10
35299;DHT22;21415;48.054;16.646;2022-12-08T11:24:27;11.70;51.20
35299;DHT22;21415;48.054;16.646;2022-12-08T11:27:03;11.80;51.30
35299;DHT22;21415;48.054;16.646;2022-12-08T11:29:30;11.70;51.30
35299;DHT22;21415;48.054;16.646;2022-12-08T11:32:00;11.70;51.30
35299;DHT22;21415;48.054;16.646;2022-12-08T11:34:37;11.70;51.10
35299;DHT22;21415;48.054;16.646;2022-12-08T11:37:09;11.70;51.10
35299;DHT22;21415;48.054;16.646;2022-12-08T11:39:45;11.70;51.10
35299;DHT22;21415;48.054;16.646;2022-12-08T11:42:14;11.60;51.10
35299;DHT22;21415;48.054;16.646;2022-12-08T11:44:46;11.60;51.20
35299;DHT22;21415;48.054;16.646;2022-12-08T11:47:21;11.60;51.20
35299;DHT22;21415;48.054;16.646;2022-12-08T11:49:54;11.60;51.20
35299;DHT22;21415;48.054;16.646;2022-12-08T11:52:33;11.50;51.20
35299;DHT22;21415;48.054;16.646;2022-12-08T12:00:37;11.50;51.40
35299;DHT22;21415;48.054;16.646;2022-12-08T12:03:10;11.50;51.20
35299;DHT22;21415;48.054;16.646;2022-12-08T12:08:46;11.50;51.30
35299;DHT22;21415;48.054;16.646;2022-12-08T12:19:56;11.40;51.40
35299;DHT22;21415;48.054;16.646;2022-12-08T12:22:30;11.40;51.40
35299;DHT22;21415;48.054;16.646;2022-12-08T12:24:57;11.40;51.50
35299;DHT22;21415;48.054;16.646;2022-12-08T12:27:28;11.30;51.40
35299;DHT22;21415;48.054;16.646;2022-12-08T12:30:02;11.40;51.50
35299;DHT22;21415;48.054;16.646;2022-12-08T12:32:57;11.40;51.50
35299;DHT22;21415;48.054;16.646;2022-12-08T12:35:40;11.30;51.60
35299;DHT22;21415;48.054;16.646;2022-12-08T12:38:34;11.30;51.60
35299;DHT22;21415;48.054;16.646;2022-12-08T12:41:27;11.30;51.70
35299;DHT22;21415;48.054;16.646;2022-12-08T12:44:22;11.30;51.60
35299;DHT22;21415;48.054;16.646;2022-12-08T12:54:44;11.30;51.60
35299;DHT22;21415;48.054;16.646;2022-12-08T12:57:37;11.30;51.60
35299;DHT22;21415;48.054;16.646;2022-12-08T13:08:02;11.20;51.50
35299;DHT22;21415;48.054;16.646;2022-12-08T13:10:33;11.30;51.70
35299;DHT22;21415;48.054;16.646;2022-12-08T13:13:15;11.30;51.50
35299;DHT22;21415;48.054;16.646;2022-12-08T13:18:36;11.20;51.70
35299;DHT22;21415;48.054;16.646;2022-12-08T13:21:11;11.20;51.60
35299;DHT22;21415;48.054;16.646;2022-12-08T13:23:50;11.20;51.70
35299;DHT22;21415;48.054;16.646;2022-12-08T13:29:21;11.20;51.70
35299;DHT22;21415;48.054;16.646;2022-12-08T13:31:54;11.20;51.70
35299;DHT22;21415;48.054;16.646;2022-12-08T13:34:21;11.20;51.70
35299;DHT22;21415;48.054;16.646;2022-12-08T13:37:21;11.20;51.70
35299;DHT22;21415;48.054;16.646;2022-12-08T13:40:08;11.20;51.90
35299;DHT22;21415;48.054;16.646;2022-12-08T13:45:35;11.20;51.80
35299;DHT22;21415;48.054;16.646;2022-12-08T13:48:29;11.20;51.60
35299;DHT22;21415;48.054;16.646;2022-12-08T13:51:13;11.20;51.70
35299;DHT22;21415;48.054;16.646;2022-12-08T13:53:45;11.30;51.70
35299;DHT22;21415;48.054;16.646;2022-12-08T13:56:14;11.30;51.60
35299;DHT22;21415;48.054;16.646;2022-12-08T13:58:40;11.20;51.50
35299;DHT22;21415;48.054;16.646;2022-12-08T14:01:18;11.30;51.50
35299;DHT22;21415;48.054;16.646;2022-12-08T14:03:50;11.30;51.70
35299;DHT22;21415;48.054;16.646;2022-12-08T14:06:19;11.30;51.50
35299;DHT22;21415;48.054;16.646;2022-12-08T14:08:51;11.30;51.50
35299;DHT22;21415;48.054;16.646;2022-12-08T14:11:33;11.30;51.50
35299;DHT22;21415;48.054;16.646;2022-12-08T14:16:47;11.30;51.40
35299;DHT22;21415;48.054;16.646;2022-12-08T14:19:17;11.30;51.40
35299;DHT22;21415;48.054;16.646;2022-12-08T14:21:57;11.30;51.40
35299;DHT22;21415;48.054;16.646;2022-12-08T14:24:28;11.30;51.40
35299;DHT22;21415;48.054;16.646;2022-12-08T14:26:58;11.30;51.40
35299;DHT22;21415;48.054;16.646;2022-12-08T14:34:43;11.30;51.40
35299;DHT22;21415;48.054;16.646;2022-12-08T14:37:12;11.40;51.40
35299;DHT22;21415;48.054;16.646;2022-12-08T14:39:39;11.40;51.40
35299;DHT22;21415;48.054;16.646;2022-12-08T14:42:05;11.40;51.40
35299;DHT22;21415;48.054;16.646;2022-12-08T14:44:32;11.40;51.50
35299;DHT22;21415;48.054;16.646;2022-12-08T14:47:09;11.40;51.40
35299;DHT22;21415;48.054;16.646;2022-12-08T14:49:37;11.50;51.20
35299;DHT22;21415;48.054;16.646;2022-12-08T14:52:09;11.50;51.10
35299;DHT22;21415;48.054;16.646;2022-12-08T14:54:37;11.40;51.10
35299;DHT22;21415;48.054;16.646;2022-12-08T14:57:04;11.40;51.10
35299;DHT22;21415;48.054;16.646;2022-12-08T14:59:35;11.40;51.10
35299;DHT22;21415;48.054;16.646;2022-12-08T15:04:42;11.40;51.80
35299;DHT22;21415;48.054;16.646;2022-12-08T15:07:17;11.40;51.30
35299;DHT22;21415;48.054;16.646;2022-12-08T15:09:46;11.40;51.40
35299;DHT22;21415;48.054;16.646;2022-12-08T15:14:56;11.40;51.30
35299;DHT22;21415;48.054;16.646;2022-12-08T15:20:25;11.40;51.60
35299;DHT22;21415;48.054;16.646;2022-12-08T15:22:53;11.40;51.40
35299;DHT22;21415;48.054;16.646;2022-12-08T15:25:19;11.40;51.30
35299;DHT22;21415;48.054;16.646;2022-12-08T15:27:45;11.40;51.20
35299;DHT22;21415;48.054;16.646;2022-12-08T15:30:16;11.40;51.30
35299;DHT22;21415;48.054;16.646;2022-12-08T15:32:42;11.40;51.40
35299;DHT22;21415;48.054;16.646;2022-12-08T15:35:12;11.50;51.30
35299;DHT22;21415;48.054;16.646;2022-12-08T15:37:38;11.50;51.50
35299;DHT22;21415;48.054;16.646;2022-12-08T15:40:05;11.50;51.20
35299;DHT22;21415;48.054;16.646;2022-12-08T15:42:31;11.50;51.30
35299;DHT22;21415;48.054;16.646;2022-12-08T15:44:57;11.50;51.20
35299;DHT22;21415;48.054;16.646;2022-12-08T15:47:23;11.50;51.20
35299;DHT22;21415;48.054;16.646;2022-12-08T15:49:51;11.50;51.30
35299;DHT22;21415;48.054;16.646;2022-12-08T15:52:22;11.50;51.30
35299;DHT22;21415;48.054;16.646;2022-12-08T15:54:48;11.50;51.30
35299;DHT22;21415;48.054;16.646;2022-12-08T15:57:24;11.50;51.30
35299;DHT22;21415;48.054;16.646;2022-12-08T15:59:51;11.50;51.30
35299;DHT22;21415;48.054;16.646;2022-12-08T16:02:17;11.50;51.20
35299;DHT22;21415;48.054;16.646;2022-12-08T16:04:44;11.50;51.20
35299;DHT22;21415;48.054;16.646;2022-12-08T16:07:26;11.50;51.30
35299;DHT22;21415;48.054;16.646;2022-12-08T16:09:52;11.50;51.40
35299;DHT22;21415;48.054;16.646;2022-12-08T16:12:23;11.60;51.20
35299;DHT22;21415;48.054;16.646;2022-12-08T16:15:09;11.50;51.20
35299;DHT22;21415;48.054;16.646;2022-12-08T16:17:35;11.50;51.20
35299;DHT22;21415;48.054;16.646;2022-12-08T16:20:01;11.50;51.20
35299;DHT22;21415;48.054;16.646;2022-12-08T16:22:29;11.40;51.30
35299;DHT22;21415;48.054;16.646;2022-12-08T16:24:56;11.50;51.20
35299;DHT22;21415;48.054;16.646;2022-12-08T16:27:29;11.50;51.20
35299;DHT22;21415;48.054;16.646;2022-12-08T16:29:57;11.50;51.30
35299;DHT22;21415;48.054;16.646;2022-12-08T16:32:24;11.50;51.30
35299;DHT22;21415;48.054;16.646;2022-12-08T16:34:50;11.50;51.30
35299;DHT22;21415;48.054;16.646;2022-12-08T16:37:17;11.50;51.30
35299;DHT22;21415;48.054;16.646;2022-12-08T16:39:43;11.50;51.50
35299;DHT22;21415;48.054;16.646;2022-12-08T16:42:13;11.50;51.30
35299;DHT22;21415;48.054;16.646;2022-12-08T16:44:58;11.50;51.40
35299;DHT22;21415;48.054;16.646;2022-12-08T16:47:24;11.40;51.40
35299;DHT22;21415;48.054;16.646;2022-12-08T16:49:49;11.40;51.40
35299;DHT22;21415;48.054;16.646;2022-12-08T16:52:15;11.40;51.40
35299;DHT22;21415;48.054;16.646;2022-12-08T16:54:42;11.40;51.40
35299;DHT22;21415;48.054;16.646;2022-12-08T16:57:07;11.50;51.50
35299;DHT22;21415;48.054;16.646;2022-12-08T16:59:33;11.40;51.40
35299;DHT22;21415;48.054;16.646;2022-12-08T17:01:59;11.40;51.50
35299;DHT22;21415;48.054;16.646;2022-12-08T17:04:25;11.40;51.50
35299;DHT22;21415;48.054;16.646;2022-12-08T17:06:50;11.40;51.50
35299;DHT22;21415;48.054;16.646;2022-12-08T17:09:17;11.40;51.50
35299;DHT22;21415;48.054;16.646;2022-12-08T17:11:43;11.50;51.80
35299;DHT22;21415;48.054;16.646;2022-12-08T17:14:10;11.50;51.50
35299;DHT22;21415;48.054;16.646;2022-12-08T17:16:36;11.50;51.50
35299;DHT22;21415;48.054;16.646;2022-12-08T17:19:02;11.50;51.50
35299;DHT22;21415;48.054;16.646;2022-12-08T17:21:28;11.50;51.50
35299;DHT22;21415;48.054;16.646;2022-12-08T17:23:54;11.50;51.60
35299;DHT22;21415;48.054;16.646;2022-12-08T17:26:20;11.50;51.60
35299;DHT22;21415;48.054;16.646;2022-12-08T17:28:45;11.50;51.60
35299;DHT22;21415;48.054;16.646;2022-12-08T17:31:13;11.50;51.60